Eastampton, New Jersey
Current Conditions -  °F | °C
As of 12:54 PM on Wednesday 28 Jan 2015 (Local Time) from KVAY Reporting Station
Clear Clear  
Wind Chill: 20°   Ceiling: Unl
Heat Index: 30°   Visibility: 10mi
Dew Point:   Wind: 13mph
Humidity: 36%   Direction: 290°WNW
Pressure: 30.1"   Gusts: 22mph
Location:  39.9896°N, 74.8021°W
Report Text: KVAY 281754Z AUTO 29011G19KT 10SM CLR M01/M14 A3010 RMK AO2 SLP194 T10111144 11011 21078 58003
Loading
Personal Weather Stations






























Interactive Weather Map New forecast layout! Learn more

10-Day Weather Forecast

Advertisements
Track Severe Weather on mobile